Time;durP1;ratioP1;P1;durP2;ratioP2;P2;SDS_P1;SDS_P2;PMS_P1;PMS_P2;Temp;Humidity;BMP_temperature;BMP_pressure;BME280_temperature;BME280_humidity;BME280_pressure;Samples;Min_cycle;Max_cycle;Signal;HPM_P1;HPM_P2
2022/11/20 00:01:41;;;;;;;1.88;1.40;;;22.30;61.90;;;;;;5091850;28;20221;-45
2022/11/20 00:04:13;;;;;;;2.42;1.50;;;22.30;61.90;;;;;;5092131;28;20569;-46
2022/11/20 00:06:43;;;;;;;1.98;1.40;;;22.30;61.80;;;;;;5091487;28;20236;-47
2022/11/20 00:09:15;;;;;;;1.17;1.08;;;22.30;61.80;;;;;;5092201;28;20220;-46
2022/11/20 00:11:45;;;;;;;1.50;1.40;;;22.30;61.60;;;;;;5092558;28;20576;-47
2022/11/20 00:14:18;;;;;;;2.45;1.40;;;22.40;61.50;;;;;;5087404;28;20221;-51
2022/11/20 00:16:49;;;;;;;2.53;1.42;;;22.40;61.40;;;;;;5072221;28;20225;-49
2022/11/20 00:19:20;;;;;;;1.50;1.20;;;22.40;61.30;;;;;;5072319;28;20724;-47
2022/11/20 00:21:53;;;;;;;2.35;1.40;;;22.40;61.30;;;;;;5071982;28;20714;-49
2022/11/20 00:24:24;;;;;;;1.02;1.00;;;22.40;61.10;;;;;;5071812;28;20217;-47
2022/11/20 00:26:55;;;;;;;1.30;1.20;;;22.50;61.10;;;;;;5070868;28;20227;-46
2022/11/20 00:29:27;;;;;;;1.35;1.23;;;22.50;61.10;;;;;;5071761;28;20225;-48
2022/11/20 00:31:58;;;;;;;1.20;1.10;;;22.50;61.00;;;;;;5071800;28;20222;-48
2022/11/20 00:34:29;;;;;;;1.65;1.10;;;22.50;60.80;;;;;;5072029;28;20202;-47
2022/11/20 00:36:59;;;;;;;1.10;0.90;;;22.60;60.90;;;;;;5071601;28;20211;-47
2022/11/20 00:39:31;;;;;;;2.47;1.17;;;22.60;60.80;;;;;;5071478;28;20209;-49
2022/11/20 00:42:01;;;;;;;1.67;1.00;;;22.60;60.60;;;;;;5071470;28;20581;-47
2022/11/20 00:44:34;;;;;;;1.52;1.00;;;22.60;61.30;;;;;;5071530;28;20211;-46
2022/11/20 00:47:05;;;;;;;2.45;1.02;;;22.60;60.40;;;;;;5071460;28;20222;-48
2022/11/20 00:49:35;;;;;;;1.77;1.17;;;22.60;60.30;;;;;;5071428;28;20211;-48
2022/11/20 00:52:06;;;;;;;1.13;1.02;;;22.70;60.70;;;;;;5070731;28;20265;-48
2022/11/20 00:54:37;;;;;;;2.05;1.15;;;22.70;60.10;;;;;;5071122;28;20233;-48
2022/11/20 00:57:08;;;;;;;1.40;1.08;;;22.70;60.00;;;;;;5071959;28;20575;-47
2022/11/20 00:59:41;;;;;;;2.22;0.90;;;22.70;59.90;;;;;;5071349;28;20202;-47
2022/11/20 01:02:11;;;;;;;1.52;0.98;;;22.70;59.90;;;;;;5071056;28;20231;-47
2022/11/20 01:04:42;;;;;;;1.30;1.00;;;22.70;59.90;;;;;;5071378;28;20202;-46
2022/11/20 01:07:13;;;;;;;1.40;1.08;;;22.80;59.90;;;;;;5071125;28;20241;-49
2022/11/20 01:09:44;;;;;;;1.05;0.73;;;22.80;59.90;;;;;;5071394;28;20207;-46
2022/11/20 01:12:14;;;;;;;1.08;0.90;;;22.80;59.80;;;;;;5071257;28;20230;-46
2022/11/20 01:14:47;;;;;;;1.05;0.73;;;22.80;59.70;;;;;;5071218;28;20297;-46
2022/11/20 01:17:18;;;;;;;1.30;0.80;;;22.90;59.70;;;;;;5071184;28;20214;-52
2022/11/20 01:19:52;;;;;;;0.90;0.80;;;22.90;59.60;;;;;;5071414;28;20202;-46
2022/11/20 01:22:23;;;;;;;0.77;0.77;;;22.90;59.60;;;;;;5071361;28;20233;-50
2022/11/20 01:24:54;;;;;;;1.05;0.77;;;22.90;59.70;;;;;;5071103;28;20213;-50
2022/11/20 01:27:24;;;;;;;1.52;0.95;;;22.90;59.50;;;;;;5071056;28;20229;-45
2022/11/20 01:29:57;;;;;;;1.45;0.70;;;23.00;60.10;;;;;;5071208;28;20206;-49
2022/11/20 01:32:28;;;;;;;0.68;0.68;;;23.00;59.40;;;;;;5071329;28;20237;-47
2022/11/20 01:34:58;;;;;;;0.88;0.82;;;23.00;59.30;;;;;;5070867;28;20658;-46
2022/11/20 01:37:29;;;;;;;0.65;0.60;;;23.00;59.30;;;;;;5070535;28;20206;-47
2022/11/20 01:40:00;;;;;;;1.40;0.80;;;23.00;59.30;;;;;;5079152;28;20193;-47
2022/11/20 01:46:01;;;;;;;1.55;0.80;;;23.00;59.10;;;;;;5062437;28;20212;-47
2022/11/20 01:48:39;;;;;;;1.05;0.70;;;23.10;59.20;;;;;;5083195;28;20255;-51
2022/11/20 01:51:15;;;;;;;0.77;0.60;;;23.10;59.10;;;;;;5094810;28;20283;-47
2022/11/20 01:53:46;;;;;;;0.85;0.70;;;23.10;59.00;;;;;;5104080;28;20680;-46
2022/11/20 01:56:18;;;;;;;0.85;0.80;;;23.10;59.00;;;;;;5128531;27;20213;-47
2022/11/20 01:58:53;;;;;;;1.55;0.90;;;23.10;58.90;;;;;;5135130;27;20236;-47
2022/11/20 02:01:24;;;;;;;0.85;0.70;;;23.10;58.80;;;;;;5056827;28;20222;-50
2022/11/20 02:03:57;;;;;;;1.05;0.70;;;23.20;58.80;;;;;;5054971;28;20192;-46
2022/11/20 02:06:31;;;;;;;2.35;1.08;;;23.20;58.70;;;;;;5054698;28;20218;-45
2022/11/20 02:09:02;;;;;;;0.70;0.70;;;23.20;58.70;;;;;;5054614;28;20227;-47
2022/11/20 02:11:34;;;;;;;1.17;0.75;;;23.20;58.60;;;;;;5054774;28;20581;-48
2022/11/20 02:14:03;;;;;;;1.13;0.70;;;23.20;58.40;;;;;;5055051;28;20690;-49
2022/11/20 02:16:37;;;;;;;1.77;0.70;;;23.20;58.40;;;;;;5054609;28;20681;-49
2022/11/20 02:19:14;;;;;;;0.75;0.70;;;23.20;58.30;;;;;;5054841;28;20217;-50
2022/11/20 02:21:52;;;;;;;0.70;0.70;;;23.30;58.30;;;;;;5054455;28;20219;-49
2022/11/20 02:24:25;;;;;;;0.60;0.50;;;23.30;58.20;;;;;;5054746;28;20199;-46
2022/11/20 02:26:58;;;;;;;1.52;0.77;;;23.30;58.20;;;;;;5054049;28;20199;-46
2022/11/20 02:29:34;;;;;;;0.73;0.57;;;23.30;58.30;;;;;;5053953;28;20242;-46
2022/11/20 02:32:06;;;;;;;0.90;0.60;;;23.30;58.30;;;;;;5054417;28;20226;-51
2022/11/20 02:34:36;;;;;;;0.60;0.60;;;23.30;58.30;;;;;;5054478;28;20203;-46
2022/11/20 02:37:07;;;;;;;0.80;0.80;;;23.30;58.30;;;;;;5054734;28;20199;-45
2022/11/20 02:39:40;;;;;;;0.95;0.60;;;23.30;58.20;;;;;;5054551;28;20675;-49
2022/11/20 02:42:10;;;;;;;1.83;0.80;;;23.30;58.10;;;;;;5054202;28;20215;-47
2022/11/20 02:44:42;;;;;;;0.88;0.65;;;23.30;58.00;;;;;;5054050;28;20203;-50
2022/11/20 02:47:14;;;;;;;1.48;1.02;;;23.30;58.00;;;;;;5053571;28;20204;-46
2022/11/20 02:49:45;;;;;;;1.73;0.75;;;23.30;58.00;;;;;;5052931;28;20567;-46
2022/11/20 02:52:16;;;;;;;1.75;0.82;;;23.40;58.00;;;;;;5054001;28;20215;-50
2022/11/20 02:54:49;;;;;;;1.35;0.70;;;23.40;58.00;;;;;;5054593;28;20207;-46
2022/11/20 02:57:20;;;;;;;0.77;0.77;;;23.40;58.00;;;;;;5054149;28;20196;-46
2022/11/20 02:59:51;;;;;;;1.00;0.70;;;23.40;57.90;;;;;;5062764;28;20213;-46
2022/11/20 03:02:22;;;;;;;1.98;0.80;;;23.40;58.10;;;;;;5073599;28;20222;-47
2022/11/20 03:04:53;;;;;;;1.40;0.70;;;23.40;58.10;;;;;;5073905;28;20213;-49
2022/11/20 03:07:23;;;;;;;0.93;0.77;;;23.40;58.20;;;;;;5073316;28;20199;-47
2022/11/20 03:09:56;;;;;;;2.17;1.02;;;23.50;58.30;;;;;;5073612;28;20198;-51
2022/11/20 03:12:27;;;;;;;2.55;0.88;;;23.50;58.10;;;;;;5073271;28;20223;-53
2022/11/20 03:14:57;;;;;;;1.35;0.80;;;23.50;58.00;;;;;;5073857;28;20198;-45
2022/11/20 03:17:29;;;;;;;1.70;0.90;;;23.60;58.10;;;;;;5073572;28;20205;-50
2022/11/20 03:19:59;;;;;;;1.77;1.02;;;23.60;58.00;;;;;;5073708;28;20203;-50
2022/11/20 03:22:32;;;;;;;1.25;1.05;;;23.60;58.00;;;;;;5073258;28;20678;-50
2022/11/20 03:25:06;;;;;;;2.05;0.90;;;23.70;57.90;;;;;;5073832;28;20210;-47
2022/11/20 03:27:37;;;;;;;1.38;0.70;;;23.70;57.90;;;;;;5073395;28;20217;-51
2022/11/20 03:30:09;;;;;;;1.35;1.00;;;23.70;57.70;;;;;;5073346;28;20194;-51
2022/11/20 03:32:39;;;;;;;1.23;0.70;;;23.70;57.60;;;;;;5072966;28;20215;-51
2022/11/20 03:35:11;;;;;;;1.27;1.00;;;23.80;57.60;;;;;;5073187;28;20589;-48
2022/11/20 03:37:42;;;;;;;1.52;0.93;;;23.80;57.50;;;;;;5073064;28;20206;-53
2022/11/20 03:40:15;;;;;;;1.60;1.00;;;23.80;57.60;;;;;;5073033;28;20206;-51
2022/11/20 03:42:49;;;;;;;1.02;0.70;;;23.80;57.70;;;;;;5072949;28;20215;-50
2022/11/20 03:45:21;;;;;;;2.95;1.17;;;23.90;57.70;;;;;;5059346;28;20206;-49
2022/11/20 03:47:52;;;;;;;1.23;1.10;;;23.90;57.60;;;;;;5054986;28;20227;-47
2022/11/20 03:50:23;;;;;;;1.23;1.13;;;23.90;57.50;;;;;;5088720;28;20244;-49
2022/11/20 03:52:54;;;;;;;1.88;0.98;;;24.00;57.60;;;;;;5092564;28;20218;-53
2022/11/20 03:55:26;;;;;;;2.00;1.10;;;24.00;57.50;;;;;;5090256;28;20537;-51
2022/11/20 03:57:57;;;;;;;1.27;1.08;;;24.00;57.70;;;;;;5092974;28;20658;-48
2022/11/20 04:00:28;;;;;;;2.45;1.00;;;24.00;57.30;;;;;;5107241;28;20296;-50
2022/11/20 04:03:02;;;;;;;2.47;1.13;;;24.10;57.30;;;;;;5111953;28;20221;-48
2022/11/20 04:05:33;;;;;;;1.60;1.20;;;24.00;57.40;;;;;;5113030;28;20205;-52
2022/11/20 04:08:03;;;;;;;2.35;1.10;;;24.10;57.40;;;;;;5112444;28;20684;-49
2022/11/20 04:10:36;;;;;;;2.35;1.13;;;24.10;57.20;;;;;;5112698;28;20194;-48
2022/11/20 04:13:07;;;;;;;1.58;0.93;;;24.20;57.10;;;;;;5112408;28;20222;-48
2022/11/20 04:15:37;;;;;;;1.55;1.13;;;24.20;57.10;;;;;;5080120;28;20195;-48
2022/11/20 04:18:08;;;;;;;1.60;1.15;;;24.20;57.10;;;;;;5072137;28;20199;-51
2022/11/20 04:20:40;;;;;;;1.40;1.08;;;24.20;57.20;;;;;;5072008;28;20208;-46
2022/11/20 04:23:11;;;;;;;1.30;1.20;;;24.20;57.10;;;;;;5071590;28;20219;-51
2022/11/20 04:25:43;;;;;;;1.88;1.25;;;24.20;57.30;;;;;;5072031;28;20202;-51
2022/11/20 04:28:14;;;;;;;2.38;1.20;;;24.20;57.30;;;;;;5071856;28;20480;-48
2022/11/20 04:30:45;;;;;;;1.90;1.17;;;24.20;57.20;;;;;;5072366;28;20195;-49
2022/11/20 04:33:16;;;;;;;1.92;1.20;;;24.20;57.30;;;;;;5071904;28;20191;-46
2022/11/20 04:35:49;;;;;;;1.27;1.17;;;24.20;57.20;;;;;;5072207;28;20199;-47
2022/11/20 04:38:20;;;;;;;1.88;1.10;;;24.20;57.10;;;;;;5071940;28;20194;-48
2022/11/20 04:40:53;;;;;;;1.33;1.00;;;24.20;57.10;;;;;;5072152;28;20194;-49
2022/11/20 04:43:24;;;;;;;2.67;1.30;;;24.20;57.00;;;;;;5071904;28;20214;-49
2022/11/20 04:45:55;;;;;;;1.63;1.20;;;24.20;56.90;;;;;;5072015;28;20207;-49
2022/11/20 04:48:26;;;;;;;1.55;1.30;;;24.20;56.90;;;;;;5071761;28;20690;-49
2022/11/20 04:50:58;;;;;;;1.25;1.10;;;24.20;56.90;;;;;;5071730;28;20217;-48
2022/11/20 04:53:29;;;;;;;2.22;1.27;;;24.20;56.90;;;;;;5072291;28;20415;-51
2022/11/20 04:56:06;;;;;;;2.28;1.20;;;24.20;56.90;;;;;;5071798;28;20201;-50
2022/11/20 04:58:37;;;;;;;1.73;1.30;;;24.20;57.00;;;;;;5072082;28;20472;-48
2022/11/20 05:01:09;;;;;;;1.88;1.10;;;24.20;57.20;;;;;;5071570;28;20698;-50
2022/11/20 05:03:40;;;;;;;1.60;1.20;;;24.20;57.20;;;;;;5071276;28;20534;-46
2022/11/20 05:06:12;;;;;;;1.90;1.20;;;24.20;57.30;;;;;;5071215;28;20198;-51
2022/11/20 05:08:43;;;;;;;2.00;1.48;;;24.20;57.30;;;;;;5071147;28;20613;-48
2022/11/20 05:11:17;;;;;;;1.80;1.33;;;24.20;57.70;;;;;;5071027;28;20215;-53
2022/11/20 05:13:48;;;;;;;3.38;1.38;;;24.20;57.70;;;;;;5070943;28;20199;-53
2022/11/20 05:16:22;;;;;;;2.30;1.38;;;24.20;57.00;;;;;;5071375;28;20201;-55
2022/11/20 05:18:53;;;;;;;2.85;1.30;;;24.20;56.90;;;;;;5071170;28;20199;-59
2022/11/20 05:21:24;;;;;;;2.60;1.25;;;24.20;56.90;;;;;;5070865;28;20301;-47
2022/11/20 05:23:58;;;;;;;1.90;1.23;;;24.20;56.90;;;;;;5070642;28;20218;-50
2022/11/20 05:26:31;;;;;;;1.30;1.20;;;24.20;56.80;;;;;;5070767;28;20226;-48
2022/11/20 05:29:01;;;;;;;3.33;1.70;;;24.20;56.90;;;;;;5070952;28;20229;-51
2022/11/20 05:31:32;;;;;;;2.33;1.20;;;24.20;57.50;;;;;;5071175;28;20225;-49
2022/11/20 05:34:03;;;;;;;2.65;1.45;;;24.20;56.90;;;;;;5071263;28;20232;-49
2022/11/20 05:36:34;;;;;;;3.28;1.60;;;24.20;57.00;;;;;;5071151;28;20658;-49
2022/11/20 05:39:04;;;;;;;1.40;1.20;;;24.20;57.10;;;;;;5080435;28;20539;-49
2022/11/20 05:41:37;;;;;;;2.35;1.60;;;24.20;57.10;;;;;;5091389;28;20229;-51
2022/11/20 05:44:08;;;;;;;2.55;1.33;;;24.20;57.10;;;;;;5087636;28;20207;-50
2022/11/20 05:46:39;;;;;;;1.95;1.27;;;24.20;57.10;;;;;;5071185;28;20281;-51
2022/11/20 05:49:10;;;;;;;1.35;1.20;;;24.10;57.00;;;;;;5091505;28;20244;-48
2022/11/20 05:51:40;;;;;;;3.35;1.77;;;24.20;57.10;;;;;;5090979;28;20218;-50
2022/11/20 05:54:11;;;;;;;1.67;1.35;;;24.20;57.00;;;;;;5094155;28;20198;-51
2022/11/20 05:56:45;;;;;;;3.00;1.60;;;24.10;57.00;;;;;;5091699;28;20190;-49
2022/11/20 05:59:15;;;;;;;2.72;1.25;;;24.10;56.90;;;;;;5091231;28;20248;-50
2022/11/20 06:01:47;;;;;;;1.30;1.20;;;24.10;56.90;;;;;;5091182;28;20222;-53
2022/11/20 06:04:18;;;;;;;2.40;1.45;;;24.10;56.90;;;;;;5090882;28;20198;-50
2022/11/20 06:06:49;;;;;;;2.30;1.60;;;24.10;56.90;;;;;;5090751;28;20630;-48
2022/11/20 06:09:21;;;;;;;2.80;1.42;;;24.10;56.90;;;;;;5090461;28;20264;-50
2022/11/20 06:11:54;;;;;;;1.60;1.20;;;24.10;56.80;;;;;;5090929;28;20214;-48
2022/11/20 06:14:24;;;;;;;1.65;1.40;;;24.10;56.90;;;;;;5090603;28;20248;-51
2022/11/20 06:16:55;;;;;;;2.17;1.38;;;24.10;56.90;;;;;;5090570;28;20202;-50
2022/11/20 06:19:26;;;;;;;2.10;1.80;;;24.00;56.90;;;;;;5091148;28;20210;-50
2022/11/20 06:21:57;;;;;;;1.73;1.30;;;24.00;56.80;;;;;;5090930;28;20210;-50
2022/11/20 06:24:28;;;;;;;1.88;1.50;;;24.00;56.80;;;;;;5090950;28;20194;-48
2022/11/20 06:27:00;;;;;;;1.95;1.60;;;24.00;56.80;;;;;;5094260;28;20198;-49
2022/11/20 06:29:31;;;;;;;2.20;1.40;;;24.00;56.80;;;;;;5094699;28;20221;-52
2022/11/20 06:32:02;;;;;;;2.03;1.40;;;24.00;56.80;;;;;;5094323;28;20265;-51
2022/11/20 06:34:33;;;;;;;3.17;1.40;;;24.00;56.80;;;;;;5094473;28;20209;-51
2022/11/20 06:37:04;;;;;;;1.63;1.30;;;24.00;56.80;;;;;;5094239;28;20201;-52
2022/11/20 06:39:43;;;;;;;2.80;1.73;;;24.00;56.80;;;;;;5094240;28;20199;-50
2022/11/20 06:42:17;;;;;;;2.63;1.52;;;24.00;56.80;;;;;;5094065;28;20213;-49
2022/11/20 06:44:49;;;;;;;1.90;1.60;;;23.90;56.70;;;;;;5094128;28;20252;-50
2022/11/20 06:47:19;;;;;;;1.52;1.40;;;23.90;56.70;;;;;;5094467;28;20198;-52
2022/11/20 06:49:50;;;;;;;2.20;1.42;;;23.90;56.70;;;;;;5094268;28;20279;-51
2022/11/20 06:52:21;;;;;;;2.00;1.60;;;23.90;56.80;;;;;;5094139;28;20222;-52
2022/11/20 06:54:52;;;;;;;1.50;1.40;;;23.90;56.80;;;;;;5094612;28;20649;-51
2022/11/20 06:57:24;;;;;;;1.60;1.50;;;23.80;56.80;;;;;;5094371;28;20200;-49
2022/11/20 06:59:55;;;;;;;1.65;1.48;;;23.80;56.70;;;;;;5094053;28;20201;-47
2022/11/20 07:02:26;;;;;;;1.85;1.50;;;23.80;56.80;;;;;;5094023;28;20312;-50
2022/11/20 07:04:57;;;;;;;2.25;1.30;;;23.80;56.80;;;;;;5093909;28;20206;-51
2022/11/20 07:07:30;;;;;;;3.05;1.58;;;23.80;56.70;;;;;;5093723;28;20206;-50
2022/11/20 07:10:01;;;;;;;1.60;1.50;;;23.80;56.80;;;;;;5093116;28;20288;-54
2022/11/20 07:12:34;;;;;;;1.98;1.30;;;23.80;56.70;;;;;;5093524;28;20221;-54
2022/11/20 07:15:05;;;;;;;1.60;1.50;;;23.80;56.80;;;;;;5093534;28;20564;-53
2022/11/20 07:17:36;;;;;;;2.22;1.55;;;23.80;56.80;;;;;;5093616;28;20578;-53
2022/11/20 07:20:07;;;;;;;2.05;1.33;;;23.70;56.70;;;;;;5093714;28;20210;-51
2022/11/20 07:22:38;;;;;;;1.50;1.40;;;23.70;56.80;;;;;;5092800;28;20225;-50
2022/11/20 07:25:10;;;;;;;1.80;1.60;;;23.70;56.70;;;;;;5093508;28;20818;-55
2022/11/20 07:27:43;;;;;;;1.98;1.50;;;23.70;56.80;;;;;;5093580;28;20296;-53
2022/11/20 07:30:20;;;;;;;2.30;1.42;;;23.70;56.80;;;;;;5088013;28;20228;-55
2022/11/20 07:32:54;;;;;;;1.73;1.60;;;23.70;56.80;;;;;;5086800;28;20233;-51
2022/11/20 07:35:25;;;;;;;2.17;1.63;;;23.70;56.80;;;;;;5093680;28;20251;-47
2022/11/20 07:37:57;;;;;;;2.22;1.50;;;23.60;56.80;;;;;;5092807;28;20301;-56
2022/11/20 07:40:28;;;;;;;1.65;1.55;;;23.60;56.80;;;;;;5093337;28;20206;-49
2022/11/20 07:43:01;;;;;;;2.58;1.60;;;23.60;56.80;;;;;;5093085;28;20226;-53
2022/11/20 07:45:32;;;;;;;2.05;1.40;;;23.60;56.70;;;;;;5094041;28;20210;-51
2022/11/20 07:48:02;;;;;;;2.50;1.67;;;23.60;56.70;;;;;;5093180;28;20653;-52
2022/11/20 07:50:33;;;;;;;1.38;1.27;;;23.60;56.80;;;;;;5091284;28;20232;-53
2022/11/20 07:53:08;;;;;;;2.33;1.70;;;23.50;56.70;;;;;;5080794;28;20222;-49
2022/11/20 07:55:39;;;;;;;1.95;1.80;;;23.50;56.70;;;;;;5072761;28;20202;-51
2022/11/20 07:58:12;;;;;;;3.38;2.90;;;23.50;56.70;;;;;;5072373;28;20226;-49
2022/11/20 08:00:43;;;;;;;4.63;2.90;;;23.50;56.80;;;;;;5072544;28;20203;-48
2022/11/20 08:03:17;;;;;;;3.53;3.22;;;23.50;56.90;;;;;;5072410;28;20685;-52
2022/11/20 08:05:48;;;;;;;4.22;3.78;;;23.50;57.00;;;;;;5072484;28;20218;-50
2022/11/20 08:08:22;;;;;;;4.28;3.20;;;23.50;57.00;;;;;;5072306;28;20716;-49
2022/11/20 08:14:11;;;;;;;4.53;3.55;;;23.40;57.00;;;;;;5072234;28;20231;-48
2022/11/20 08:16:35;;;;;;;3.30;3.00;;;23.40;56.80;;;;;;5072766;28;20336;-47
2022/11/20 08:19:11;;;;;;;4.05;2.92;;;23.40;56.80;;;;;;5072477;28;20543;-47
2022/11/20 08:21:42;;;;;;;3.50;3.15;;;23.40;56.80;;;;;;5072277;28;20222;-46
2022/11/20 08:24:16;;;;;;;4.78;3.40;;;23.40;56.90;;;;;;5072301;28;20206;-47
2022/11/20 08:26:47;;;;;;;3.55;3.25;;;23.40;57.00;;;;;;5072449;28;20221;-48
2022/11/20 08:29:20;;;;;;;3.88;3.47;;;23.30;56.90;;;;;;5071997;28;20575;-48
2022/11/20 08:31:51;;;;;;;3.30;3.00;;;23.30;57.00;;;;;;5071910;28;20237;-49
2022/11/20 08:34:22;;;;;;;4.30;3.28;;;23.30;57.00;;;;;;5072150;28;20214;-49
2022/11/20 08:36:52;;;;;;;3.40;3.10;;;23.30;57.00;;;;;;5072218;28;20297;-48
2022/11/20 08:39:23;;;;;;;3.85;3.28;;;23.30;57.00;;;;;;5071391;28;20662;-47
2022/11/20 08:41:54;;;;;;;3.25;2.90;;;23.30;57.00;;;;;;5071444;28;20231;-47
2022/11/20 08:44:30;;;;;;;4.32;3.45;;;23.20;56.90;;;;;;5071098;28;20662;-49
2022/11/20 08:47:04;;;;;;;3.53;3.20;;;23.20;56.90;;;;;;5071655;28;20296;-48
2022/11/20 08:49:35;;;;;;;3.83;3.13;;;23.20;56.90;;;;;;5071437;28;20219;-47
2022/11/20 08:52:06;;;;;;;3.92;3.47;;;23.20;56.90;;;;;;5071212;28;20237;-47
2022/11/20 08:54:36;;;;;;;4.60;3.60;;;23.10;56.80;;;;;;5071787;28;20206;-47
2022/11/20 08:57:07;;;;;;;3.78;3.33;;;23.10;57.40;;;;;;5072824;28;20284;-47
2022/11/20 08:59:40;;;;;;;3.92;3.50;;;23.10;56.80;;;;;;5072512;28;20246;-47
2022/11/20 09:02:11;;;;;;;4.07;3.13;;;23.10;56.80;;;;;;5072315;28;20309;-48
2022/11/20 09:04:42;;;;;;;4.00;3.40;;;23.10;56.90;;;;;;5072624;28;20210;-48
2022/11/20 09:07:13;;;;;;;3.50;3.20;;;23.00;56.80;;;;;;5071658;28;20638;-51
2022/11/20 09:09:44;;;;;;;4.03;3.40;;;23.00;56.90;;;;;;5071166;28;20214;-47
2022/11/20 09:12:15;;;;;;;3.38;3.08;;;23.00;56.90;;;;;;5070814;28;20287;-46
2022/11/20 09:14:49;;;;;;;4.07;3.00;;;23.00;56.90;;;;;;5071038;28;20211;-48
2022/11/20 09:17:20;;;;;;;4.13;3.28;;;23.00;57.00;;;;;;5071424;28;20298;-52
2022/11/20 09:19:51;;;;;;;3.60;3.30;;;22.90;56.90;;;;;;5071598;28;20612;-46
2022/11/20 09:22:21;;;;;;;4.03;3.10;;;22.90;56.90;;;;;;5071275;28;20226;-47
2022/11/20 09:24:52;;;;;;;3.88;3.10;;;22.90;56.90;;;;;;5071269;28;20614;-53
2022/11/20 09:27:23;;;;;;;5.68;3.55;;;22.90;56.90;;;;;;5070977;28;20206;-51
2022/11/20 09:29:56;;;;;;;4.13;3.70;;;22.90;56.90;;;;;;5070660;28;20219;-47
2022/11/20 09:32:26;;;;;;;3.95;3.55;;;22.90;56.90;;;;;;5071226;28;20280;-52
2022/11/20 09:34:57;;;;;;;4.20;3.60;;;22.80;56.90;;;;;;5076564;28;20198;-46
2022/11/20 09:37:28;;;;;;;4.50;3.50;;;22.80;57.00;;;;;;5091579;28;20259;-51
2022/11/20 09:39:59;;;;;;;5.20;3.85;;;22.80;57.00;;;;;;5090707;28;20190;-57
2022/11/20 09:42:39;;;;;;;4.03;3.63;;;22.80;57.00;;;;;;5091025;28;20279;-56
2022/11/20 09:45:24;;;;;;;4.10;3.67;;;22.70;57.00;;;;;;5090994;28;20198;-56
2022/11/20 09:48:06;;;;;;;4.05;3.35;;;22.70;56.90;;;;;;5107901;28;20197;-56
2022/11/20 09:50:47;;;;;;;4.90;4.00;;;22.70;57.00;;;;;;5091859;28;20296;-47
2022/11/20 09:53:26;;;;;;;6.03;4.05;;;22.70;57.10;;;;;;5090938;28;20608;-47
2022/11/20 09:55:57;;;;;;;5.47;4.20;;;22.70;57.10;;;;;;5093172;28;20194;-61
2022/11/20 09:58:34;;;;;;;4.40;4.00;;;22.60;57.10;;;;;;5091076;28;20561;-48
2022/11/20 10:01:13;;;;;;;4.25;3.65;;;22.60;57.10;;;;;;5093648;28;20201;-51
2022/11/20 10:03:55;;;;;;;4.80;3.80;;;22.60;57.10;;;;;;5094926;28;20331;-47
2022/11/20 10:06:32;;;;;;;4.72;4.07;;;22.60;57.10;;;;;;5094487;28;20209;-46
2022/11/20 10:09:23;;;;;;;4.47;3.65;;;22.50;57.00;;;;;;5095149;28;20202;-48
2022/11/20 10:12:07;;;;;;;4.22;3.83;;;22.50;57.00;;;;;;5094128;28;20257;-46
2022/11/20 10:14:50;;;;;;;3.92;3.63;;;22.50;56.90;;;;;;5086959;28;20211;-47
2022/11/20 10:17:34;;;;;;;4.32;3.78;;;22.50;56.90;;;;;;5073044;28;20198;-48
2022/11/20 10:20:22;;;;;;;4.55;3.95;;;22.50;57.00;;;;;;5074046;28;20211;-57
2022/11/20 10:23:06;;;;;;;4.18;3.67;;;22.40;57.60;;;;;;5074343;28;20226;-59
2022/11/20 10:25:42;;;;;;;3.47;3.15;;;22.40;57.00;;;;;;5074578;28;20206;-57
2022/11/20 10:28:32;;;;;;;4.13;3.72;;;22.40;57.10;;;;;;5074650;28;20203;-55
2022/11/20 10:31:07;;;;;;;3.95;3.50;;;22.30;57.10;;;;;;5073957;28;20713;-50
2022/11/20 10:33:43;;;;;;;3.92;3.63;;;22.30;57.10;;;;;;5074007;28;20206;-55
2022/11/20 10:36:20;;;;;;;4.45;3.83;;;22.30;57.10;;;;;;5074369;28;20202;-51
2022/11/20 10:38:54;;;;;;;3.92;3.47;;;22.30;57.10;;;;;;5074064;28;20268;-50
2022/11/20 10:41:29;;;;;;;3.72;3.38;;;22.20;57.10;;;;;;5073921;28;20222;-53
2022/11/20 10:44:06;;;;;;;4.28;3.58;;;22.20;57.10;;;;;;5073632;28;20206;-57
2022/11/20 10:46:46;;;;;;;3.78;3.45;;;22.20;57.10;;;;;;5073938;28;20198;-48
2022/11/20 10:49:22;;;;;;;4.93;3.45;;;22.20;57.00;;;;;;5074142;28;20206;-51
2022/11/20 10:52:03;;;;;;;4.32;3.58;;;22.20;57.00;;;;;;5073998;28;20227;-54
2022/11/20 10:54:41;;;;;;;4.72;3.53;;;22.20;57.00;;;;;;5086957;28;20248;-53
2022/11/20 10:57:23;;;;;;;3.63;3.30;;;22.10;57.00;;;;;;5112759;28;20209;-53
2022/11/20 11:00:07;;;;;;;4.03;3.13;;;22.10;57.10;;;;;;5093268;28;20292;-50
2022/11/20 11:02:42;;;;;;;3.63;3.33;;;22.10;57.10;;;;;;5113967;28;20225;-48
2022/11/20 11:05:35;;;;;;;3.72;3.40;;;22.10;57.10;;;;;;5114236;28;20221;-56
2022/11/20 11:08:07;;;;;;;3.53;3.22;;;22.00;57.20;;;;;;5114103;28;20726;-52
2022/11/20 11:10:46;;;;;;;3.63;3.22;;;22.00;57.20;;;;;;5113299;28;20225;-60
2022/11/20 11:13:24;;;;;;;3.72;3.42;;;22.00;57.20;;;;;;5113732;28;20204;-47
2022/11/20 11:15:55;;;;;;;3.65;3.28;;;22.00;57.20;;;;;;5114130;28;20201;-54
2022/11/20 11:18:30;;;;;;;3.60;3.30;;;22.00;57.20;;;;;;5114135;28;20197;-50
2022/11/20 11:21:06;;;;;;;4.63;3.70;;;21.90;57.20;;;;;;5114306;28;20196;-51
2022/11/20 11:23:40;;;;;;;3.42;3.13;;;21.90;57.10;;;;;;5113720;28;20193;-54
2022/11/20 11:26:21;;;;;;;4.13;3.55;;;21.90;57.40;;;;;;5113840;28;20201;-53
2022/11/20 11:28:58;;;;;;;4.20;3.72;;;21.90;57.10;;;;;;5113446;28;20193;-53
2022/11/20 11:31:30;;;;;;;3.75;3.40;;;21.90;57.10;;;;;;5113787;28;20224;-51
2022/11/20 11:34:10;;;;;;;3.40;3.00;;;21.90;57.10;;;;;;5113759;28;20533;-57
2022/11/20 11:36:43;;;;;;;4.70;3.88;;;21.80;57.10;;;;;;5134345;27;20253;-57
2022/11/20 11:39:20;;;;;;;3.35;2.92;;;21.80;57.10;;;;;;5134188;27;20203;-55
2022/11/20 11:41:51;;;;;;;3.90;3.50;;;21.80;57.20;;;;;;5148081;27;20691;-56
2022/11/20 11:47:20;;;;;;;3.60;3.30;;;21.80;57.30;;;;;;5115337;27;20193;-57
2022/11/20 11:49:51;;;;;;;3.22;2.92;;;21.70;57.20;;;;;;5152585;27;20191;-53
2022/11/20 11:52:26;;;;;;;3.70;3.30;;;21.70;57.20;;;;;;5154719;27;20727;-56
2022/11/20 11:54:59;;;;;;;3.78;3.35;;;21.70;57.20;;;;;;5154518;27;20236;-54
2022/11/20 11:57:46;;;;;;;3.67;3.38;;;21.60;57.10;;;;;;5154479;27;20244;-49
2022/11/20 12:00:20;;;;;;;3.95;3.53;;;21.70;57.20;;;;;;5135746;27;20201;-54
2022/11/20 12:03:05;;;;;;;4.22;3.33;;;21.60;57.10;;;;;;5113362;28;20262;-48
2022/11/20 12:05:42;;;;;;;3.80;3.40;;;21.60;57.10;;;;;;5113505;28;20198;-55
2022/11/20 12:08:22;;;;;;;3.90;3.17;;;21.60;57.10;;;;;;5113149;28;20200;-52
2022/11/20 12:10:58;;;;;;;3.20;2.90;;;21.60;57.10;;;;;;5113021;28;20229;-55
2022/11/20 12:13:52;;;;;;;3.10;2.90;;;21.60;57.10;;;;;;5112935;28;20189;-54
2022/11/20 12:16:24;;;;;;;3.50;3.20;;;21.50;57.10;;;;;;5072336;28;20723;-53
2022/11/20 12:18:57;;;;;;;3.15;2.85;;;21.50;57.20;;;;;;5072238;28;20651;-57
2022/11/20 12:21:36;;;;;;;3.58;3.00;;;21.50;57.20;;;;;;5072197;28;20268;-56
2022/11/20 12:24:25;;;;;;;3.25;3.03;;;21.40;57.20;;;;;;5071125;28;20841;-53
2022/11/20 12:27:14;;;;;;;3.35;3.05;;;21.40;57.20;;;;;;5071819;28;20198;-55
2022/11/20 12:29:56;;;;;;;3.72;3.08;;;21.40;57.20;;;;;;5072045;28;20561;-50
2022/11/20 12:33:00;;;;;;;3.08;2.85;;;21.40;57.20;;;;;;5072004;28;20227;-62
2022/11/20 12:35:53;;;;;;;3.33;3.00;;;21.40;57.20;;;;;;5072038;28;20643;-56
2022/11/20 12:38:54;;;;;;;3.58;2.92;;;21.40;57.20;;;;;;5071149;28;20202;-56
2022/11/20 12:45:13;;;;;;;3.15;2.85;;;21.30;57.10;;;;;;5078726;28;20201;-57
2022/11/20 12:48:04;;;;;;;3.70;3.17;;;21.30;57.10;;;;;;5092070;28;20657;-58
2022/11/20 12:50:45;;;;;;;3.20;2.90;;;21.30;57.10;;;;;;5091714;28;20201;-51
2022/11/20 12:53:28;;;;;;;3.42;2.95;;;21.30;57.20;;;;;;5091858;28;20193;-53
2022/11/20 12:56:05;;;;;;;3.50;3.08;;;21.20;57.20;;;;;;5092069;28;20193;-54
2022/11/20 12:58:44;;;;;;;3.00;2.70;;;21.20;57.90;;;;;;5092458;28;20198;-47
2022/11/20 13:01:43;;;;;;;2.80;2.60;;;21.10;57.30;;;;;;5091399;28;20230;-51
2022/11/20 13:04:35;;;;;;;3.00;2.70;;;21.10;57.20;;;;;;5090993;28;20687;-54
2022/11/20 13:07:08;;;;;;;3.40;3.03;;;21.10;57.20;;;;;;5091250;28;20201;-50
2022/11/20 13:09:43;;;;;;;3.45;2.90;;;21.10;57.20;;;;;;5091271;28;20198;-56
2022/11/20 13:12:20;;;;;;;4.07;3.10;;;21.10;57.20;;;;;;5091841;28;20229;-52
2022/11/20 13:15:01;;;;;;;2.90;2.70;;;21.10;57.20;;;;;;5091920;28;20205;-50
2022/11/20 13:17:37;;;;;;;3.00;2.72;;;21.10;57.20;;;;;;5091884;28;20646;-53
2022/11/20 13:20:15;;;;;;;2.88;2.67;;;21.10;57.20;;;;;;5091366;28;20678;-56
2022/11/20 13:22:50;;;;;;;3.15;2.95;;;21.10;57.10;;;;;;5091303;28;20230;-53
2022/11/20 13:25:29;;;;;;;2.90;2.70;;;21.00;57.20;;;;;;5091801;28;20236;-51
2022/11/20 13:28:03;;;;;;;3.45;3.15;;;21.00;57.20;;;;;;5091866;28;20352;-51
2022/11/20 13:30:37;;;;;;;3.58;3.13;;;21.00;57.20;;;;;;5091724;28;20202;-55
2022/11/20 13:33:11;;;;;;;3.30;2.90;;;20.90;57.20;;;;;;5091330;28;20214;-55
2022/11/20 13:35:45;;;;;;;2.85;2.53;;;20.90;57.20;;;;;;5091446;28;20197;-57